Thedford, NE (69166)

3:58 AM CDT on August 29, 2015 (GMT -0500)
Thedford | | Change Station
CLOSE
Current Station
Airport
Location: Thedford,
Elevation: 2927 ft
Nearby Weather Stations

Elev 2927 ft 41.96 °N, 100.57 °W | Updated 23 minutes ago

Fog
Fog
54 °F
Feels Like 54 °F
N
4
Wind Variable Wind from WSW

Today
High -- | Low -- °F
--% Chance of Precip.
Yesterday
High -- | Low -- °F
Precip. -- in
7:04 AM 8:21 PM
Full, 100% visible
Pressure 30.11 in
Visibility 1.2 miles
Clouds
Dew Point 54 °F
Humidity 98%
Rainfall 0.00 in
Snow Depth Not available.
UV Not available.
Pollen 10.50 out of 12
Air Quality Not available.
Flu Activity Not available.
METAR KTIF 290835Z AUTO 24003KT 1 1/4SM BR VV007 12/12 A3011 RMK AO2 T01230120
Pressure 30.11 in
Visibility 1.2 miles
Clouds
Dew Point 54 °F
Humidity 98%
Rainfall 0.00 in
Snow Depth Not available.
UV Not available.
Pollen 10.50 out of 12
Air Quality Not available.
Flu Activity Not available.
METAR KTIF 290835Z AUTO 24003KT 1 1/4SM BR VV007 12/12 A3011 RMK AO2 T01230120
Nowcast | as of 1:47 am CDT on August 29, 2015

Areas of fog...some locally dense reducing visibilities to a quarter of a mile...were developing over north central Nebraska early this morning. Visibilities generally ranged from 3 to 5 miles. If traveling between Valentine...Oneill and Broken Bow be prepared for rapidly changing visibilities this morning.

×

10-Day Weather Forecast

×

Almanac

Astronomy

Aug. 29, 2015 Rise Set
Actual Time
Civil Twilight
Nautical Twilight
Astronomical Twilight
Moon
Length of Visible Light
Length of Day
Tomorrow will be .
, % of the Moon is Illuminated

Today's Extremes

State Highs State Lows

Community

WunderPhotos

Upload Photos

1,850,634 photos uploaded!

WunderBlogs® & News

Nearby

Air Quality

  Air Quality AQ Index Pollutant
Not available.

Snow Depth

Station Depth Elevation

Earthquake Activity

City Distance Mag. Time & Date
Minimum magnitude displayed is 2.5.

Coastal Water Temperatures

Place Temperature

Stations

Nearby Weather Stations

Station Location Temp. Windchill Dew Point Humidity Wind Precip. Elev Updated Type